createdAt,value
2019-03-03T00:01:41.848Z,14.43
2019-03-03T00:04:11.558Z,12.47
2019-03-03T00:06:41.435Z,9.23
2019-03-03T00:09:11.817Z,11.10
2019-03-03T00:11:42.573Z,12.10
2019-03-03T00:14:12.352Z,8.03
2019-03-03T00:16:42.187Z,9.53
2019-03-03T00:19:11.933Z,10.70
2019-03-03T00:21:41.684Z,18.30
2019-03-03T00:24:11.728Z,10.30
2019-03-03T00:26:41.452Z,9.60
2019-03-03T00:29:11.590Z,10.33
2019-03-03T00:31:41.824Z,11.10
2019-03-03T00:34:11.655Z,10.38
2019-03-03T00:36:59.578Z,10.70
2019-03-03T00:39:38.815Z,11.20
2019-03-03T00:42:30.317Z,17.20
2019-03-03T00:45:12.853Z,12.33
2019-03-03T00:48:05.463Z,11.90
2019-03-03T00:50:41.558Z,14.33
2019-03-03T00:53:17.216Z,14.70
2019-03-03T00:56:05.910Z,14.47
2019-03-03T00:58:50.317Z,10.77
2019-03-03T01:01:39.105Z,11.30
2019-03-03T01:04:17.689Z,11.83
2019-03-03T01:06:56.550Z,12.80
2019-03-03T01:09:41.778Z,12.80
2019-03-03T01:12:33.592Z,11.47
2019-03-03T01:15:13.194Z,11.67
2019-03-03T01:17:51.661Z,12.37
2019-03-03T01:20:26.942Z,11.77
2019-03-03T01:23:05.999Z,13.83
2019-03-03T01:25:35.750Z,9.53
2019-03-03T01:28:05.507Z,12.47
2019-03-03T01:30:35.216Z,12.33
2019-03-03T01:33:05.044Z,9.97
2019-03-03T01:35:34.743Z,7.77
2019-03-03T01:38:05.257Z,11.03
2019-03-03T01:40:35.094Z,11.73
2019-03-03T01:43:05.422Z,9.30
2019-03-03T01:45:35.803Z,7.73
2019-03-03T01:48:05.540Z,9.33
2019-03-03T01:50:35.238Z,8.13
2019-03-03T01:53:05.063Z,9.67
2019-03-03T01:55:34.896Z,9.80
2019-03-03T01:58:05.018Z,10.37
2019-03-03T02:00:34.787Z,9.80
2019-03-03T02:03:06.056Z,7.25
2019-03-03T02:05:35.751Z,12.10
2019-03-03T02:08:05.645Z,10.87
2019-03-03T02:10:35.323Z,8.10
2019-03-03T02:13:05.168Z,9.00
2019-03-03T02:15:35.026Z,10.73
2019-03-03T02:18:05.357Z,7.80
2019-03-03T02:20:35.024Z,10.53
2019-03-03T02:23:05.190Z,8.13
2019-03-03T02:25:34.926Z,10.87
2019-03-03T02:28:05.967Z,6.62
2019-03-03T02:30:35.815Z,8.03
2019-03-03T02:33:05.830Z,8.17
2019-03-03T02:35:35.505Z,6.27
2019-03-03T02:38:05.293Z,10.70
2019-03-03T02:40:35.048Z,9.30
2019-03-03T02:43:05.432Z,11.80
2019-03-03T02:45:35.111Z,6.60
2019-03-03T02:48:04.910Z,12.43
2019-03-03T02:50:34.767Z,10.93
2019-03-03T02:53:05.065Z,8.60
2019-03-03T02:55:34.918Z,7.07
2019-03-03T02:58:05.638Z,12.50
2019-03-03T03:00:37.801Z,9.63
2019-03-03T03:03:10.434Z,9.10
2019-03-03T03:05:53.083Z,9.43
2019-03-03T03:11:12.933Z,12.05
2019-03-03T03:13:49.266Z,9.43
2019-03-03T03:16:33.639Z,10.17
2019-03-03T03:19:37.237Z,9.67
2019-03-03T03:22:23.331Z,9.63
2019-03-03T03:25:04.016Z,6.47
2019-03-03T03:27:46.616Z,6.87
2019-03-03T03:30:28.287Z,7.37
2019-03-03T03:33:29.093Z,9.27
2019-03-03T03:36:03.168Z,9.07
2019-03-03T03:38:38.261Z,9.07
2019-03-03T03:41:15.964Z,9.67
2019-03-03T03:44:23.128Z,9.03
2019-03-03T03:47:17.605Z,9.57
2019-03-03T03:50:11.901Z,7.67
2019-03-03T03:52:59.064Z,9.27
2019-03-03T03:55:38.306Z,8.25
2019-03-03T03:58:25.746Z,8.30
2019-03-03T04:01:13.187Z,11.60
2019-03-03T04:04:07.888Z,8.03
2019-03-03T04:06:55.677Z,14.60
2019-03-03T04:09:44.121Z,6.10
2019-03-03T04:12:30.676Z,11.27
2019-03-03T04:15:20.632Z,8.30
2019-03-03T04:18:01.457Z,11.53
2019-03-03T04:20:50.214Z,14.53
2019-03-03T04:23:50.844Z,9.80
2019-03-03T04:26:55.056Z,12.27
2019-03-03T04:29:41.296Z,12.82
2019-03-03T04:32:21.999Z,8.27
2019-03-03T04:35:00.517Z,9.47
2019-03-03T04:37:36.803Z,9.47
2019-03-03T04:40:20.479Z,11.27
2019-03-03T04:42:58.157Z,10.00
2019-03-03T04:45:35.577Z,10.57
2019-03-03T04:48:16.890Z,11.73
2019-03-03T04:51:04.245Z,13.30
2019-03-03T04:54:02.198Z,13.47
2019-03-03T04:56:56.793Z,15.03
2019-03-03T04:59:44.273Z,10.07
2019-03-03T05:02:41.993Z,8.87
2019-03-03T05:05:42.926Z,13.93
2019-03-03T05:08:23.234Z,12.63
2019-03-03T05:11:18.206Z,10.20
2019-03-03T05:13:55.305Z,11.97
2019-03-03T05:16:42.521Z,15.03
2019-03-03T05:19:25.950Z,10.47
2019-03-03T05:21:55.752Z,13.73
2019-03-03T05:24:33.920Z,14.53
2019-03-03T05:26:56.821Z,18.63
2019-03-03T05:29:26.505Z,11.67
2019-03-03T05:31:56.225Z,14.73
2019-03-03T05:34:26.200Z,17.50
2019-03-03T05:36:55.886Z,11.60
2019-03-03T05:39:25.575Z,12.10
2019-03-03T05:41:55.776Z,13.47
2019-03-03T05:44:25.470Z,15.87
2019-03-03T05:46:55.157Z,12.37
2019-03-03T05:49:25.089Z,15.10
2019-03-03T05:51:54.838Z,14.37
2019-03-03T05:54:24.568Z,16.13
2019-03-03T05:56:55.236Z,13.87
2019-03-03T05:59:24.929Z,15.05
2019-03-03T06:01:54.949Z,13.70
2019-03-03T06:04:24.797Z,11.00
2019-03-03T06:06:54.519Z,14.53
2019-03-03T06:09:24.194Z,14.93
2019-03-03T06:11:53.873Z,17.23
2019-03-03T06:14:23.561Z,17.57
2019-03-03T06:16:53.510Z,13.83
2019-03-03T06:19:23.206Z,15.57
2019-03-03T06:21:52.906Z,16.77
2019-03-03T06:24:22.588Z,12.73
2019-03-03T06:26:52.438Z,14.07
2019-03-03T06:29:22.111Z,17.43
2019-03-03T06:31:51.834Z,17.90
2019-03-03T06:34:21.496Z,11.57
2019-03-03T06:36:51.305Z,13.57
2019-03-03T06:39:21.245Z,18.43
2019-03-03T06:41:50.942Z,13.83
2019-03-03T06:44:20.842Z,13.47
2019-03-03T06:46:50.640Z,15.13
2019-03-03T06:49:20.324Z,15.88
2019-03-03T06:51:50.016Z,13.63
2019-03-03T06:54:19.941Z,12.03
2019-03-03T06:56:49.616Z,17.00
2019-03-03T06:59:19.597Z,16.90
2019-03-03T07:01:49.275Z,14.77
2019-03-03T07:04:19.005Z,17.57
2019-03-03T07:06:49.009Z,16.50
2019-03-03T07:09:18.691Z,14.07
2019-03-03T07:11:48.616Z,18.77
2019-03-03T07:14:18.542Z,14.60
2019-03-03T07:16:48.322Z,17.37
2019-03-03T07:19:18.133Z,13.73
2019-03-03T07:21:47.801Z,15.33
2019-03-03T07:24:17.492Z,14.35
2019-03-03T07:26:47.248Z,20.73
2019-03-03T07:29:16.919Z,18.07
2019-03-03T07:31:46.595Z,17.73
2019-03-03T07:34:16.287Z,21.35
2019-03-03T07:36:46.249Z,14.80
2019-03-03T07:39:19.662Z,19.97
2019-03-03T07:41:49.442Z,12.97
2019-03-03T07:44:19.210Z,14.43
2019-03-03T07:46:48.923Z,17.57
2019-03-03T07:49:18.591Z,12.13
2019-03-03T07:51:48.336Z,13.53
2019-03-03T07:54:18.730Z,19.10
2019-03-03T07:56:48.414Z,15.00
2019-03-03T07:59:18.095Z,12.87
2019-03-03T08:01:48.197Z,15.00
2019-03-03T08:04:17.868Z,13.83
2019-03-03T08:06:47.655Z,13.13
2019-03-03T08:09:17.930Z,17.25
2019-03-03T08:11:47.603Z,15.20
2019-03-03T08:14:17.270Z,17.10
2019-03-03T08:16:46.959Z,14.53
2019-03-03T08:19:16.637Z,16.03
2019-03-03T08:21:46.332Z,15.23
2019-03-03T08:24:16.094Z,18.13
2019-03-03T08:26:46.054Z,10.80
2019-03-03T08:29:15.750Z,16.90
2019-03-03T08:31:45.434Z,12.30
2019-03-03T08:34:15.449Z,17.53
2019-03-03T08:36:46.214Z,14.83
2019-03-03T08:39:16.050Z,17.13
2019-03-03T08:41:49.303Z,14.63
2019-03-03T08:44:50.425Z,12.77
2019-03-03T08:47:39.045Z,13.33
2019-03-03T08:50:13.930Z,17.50
2019-03-03T08:53:08.443Z,15.53
2019-03-03T08:55:58.675Z,16.97
2019-03-03T08:58:33.631Z,12.23
2019-03-03T09:01:21.384Z,13.20
2019-03-03T09:03:56.447Z,13.87
2019-03-03T09:06:38.227Z,15.03
2019-03-03T09:09:17.348Z,12.07
2019-03-03T09:11:56.069Z,12.33
2019-03-03T09:14:41.448Z,16.67
2019-03-03T09:17:36.435Z,12.03
2019-03-03T09:20:16.296Z,12.60
2019-03-03T09:23:03.520Z,12.67
2019-03-03T09:25:51.364Z,11.80
2019-03-03T09:28:27.174Z,10.80
2019-03-03T09:31:14.677Z,11.17
2019-03-03T09:34:00.077Z,9.80
2019-03-03T09:36:40.748Z,9.23
2019-03-03T09:39:27.853Z,12.00
2019-03-03T09:42:15.085Z,8.33
2019-03-03T09:45:00.702Z,10.47
2019-03-03T09:47:47.805Z,13.03
2019-03-03T09:50:37.027Z,8.63
2019-03-03T09:53:21.702Z,11.23
2019-03-03T09:56:12.708Z,8.30
2019-03-03T09:59:10.682Z,7.57
2019-03-03T10:02:11.612Z,9.33
2019-03-03T10:04:53.761Z,7.97
2019-03-03T10:07:42.294Z,8.33
2019-03-03T10:10:36.743Z,10.08
2019-03-03T10:13:16.690Z,6.43
2019-03-03T10:15:51.319Z,10.03
2019-03-03T10:18:30.047Z,7.17
2019-03-03T10:21:09.142Z,6.47
2019-03-03T10:24:01.114Z,7.17
2019-03-03T10:26:38.385Z,6.27
2019-03-03T10:29:33.242Z,6.23
2019-03-03T10:32:27.705Z,6.43
2019-03-03T10:35:15.749Z,9.83
2019-03-03T10:38:00.844Z,6.47
2019-03-03T10:40:58.763Z,11.10
2019-03-03T10:43:50.225Z,9.30
2019-03-03T10:46:30.457Z,6.93
2019-03-03T10:49:05.593Z,6.80
2019-03-03T10:51:40.922Z,9.30
2019-03-03T10:54:24.860Z,7.50
2019-03-03T10:57:17.468Z,6.37
2019-03-03T11:00:19.342Z,10.37
2019-03-03T11:03:02.651Z,7.70
2019-03-03T11:05:50.763Z,7.90
2019-03-03T11:08:40.253Z,8.07
2019-03-03T11:11:27.659Z,6.20
2019-03-03T11:14:20.348Z,7.60
2019-03-03T11:17:07.791Z,6.30
2019-03-03T11:19:44.975Z,6.37
2019-03-03T11:22:21.720Z,6.30
2019-03-03T11:25:10.146Z,7.80
2019-03-03T11:27:58.899Z,6.00
2019-03-03T11:30:40.285Z,6.07
2019-03-03T11:33:41.160Z,6.53
2019-03-03T11:36:25.478Z,6.90
2019-03-03T11:39:31.942Z,6.80
2019-03-03T11:42:19.825Z,7.37
2019-03-03T11:45:02.612Z,6.53
2019-03-03T11:47:52.239Z,5.90
2019-03-03T11:50:28.448Z,6.60
2019-03-03T11:53:13.752Z,7.07
2019-03-03T11:55:52.840Z,7.23
2019-03-03T11:58:32.479Z,6.47
2019-03-03T12:01:20.173Z,6.80
2019-03-03T12:03:59.158Z,8.40
2019-03-03T12:06:54.091Z,6.60
2019-03-03T12:09:32.381Z,6.60
2019-03-03T12:12:25.755Z,7.60
2019-03-03T12:15:06.799Z,6.03
2019-03-03T12:17:43.636Z,6.83
2019-03-03T12:20:25.414Z,6.35
2019-03-03T12:23:05.813Z,6.77
2019-03-03T12:25:44.823Z,7.67
2019-03-03T12:28:32.085Z,7.75
2019-03-03T12:31:15.039Z,6.43
2019-03-03T12:34:04.860Z,7.00
2019-03-03T12:36:54.278Z,5.70
2019-03-03T12:39:30.757Z,7.80
2019-03-03T12:42:10.670Z,6.20
2019-03-03T12:44:49.164Z,7.03
2019-03-03T12:47:30.147Z,8.20
2019-03-03T12:50:17.505Z,7.33
2019-03-03T12:52:59.192Z,7.10
2019-03-03T12:55:53.956Z,7.43
2019-03-03T12:58:51.635Z,6.27
2019-03-03T13:01:34.876Z,6.87
2019-03-03T13:04:21.500Z,6.30
2019-03-03T13:07:25.132Z,6.70
2019-03-03T13:10:15.757Z,6.63
2019-03-03T13:12:51.297Z,6.13
2019-03-03T13:15:43.785Z,5.73
2019-03-03T13:18:21.834Z,7.00
2019-03-03T13:21:00.975Z,7.20
2019-03-03T13:23:45.807Z,8.30
2019-03-03T13:26:24.718Z,6.40
2019-03-03T13:29:12.437Z,7.50
2019-03-03T13:32:02.079Z,6.80
2019-03-03T13:34:39.738Z,6.67
2019-03-03T13:37:28.492Z,6.67
2019-03-03T13:40:20.468Z,5.70
2019-03-03T13:42:59.416Z,6.33
2019-03-03T13:45:32.281Z,5.97
2019-03-03T13:48:02.178Z,5.90
2019-03-03T13:50:32.177Z,6.83
2019-03-03T13:53:02.072Z,5.23
2019-03-03T13:55:32.713Z,6.47
2019-03-03T13:58:02.383Z,8.63
2019-03-03T14:00:32.325Z,5.15
2019-03-03T14:03:02.574Z,6.30
2019-03-03T14:05:32.474Z,5.63
2019-03-03T14:08:02.419Z,6.23
2019-03-03T14:10:33.263Z,5.87
2019-03-03T14:13:02.999Z,7.07
2019-03-03T14:15:32.770Z,5.83
2019-03-03T14:18:02.522Z,6.30
2019-03-03T14:20:32.255Z,7.47
2019-03-03T14:23:01.965Z,6.30
2019-03-03T14:25:31.709Z,7.10
2019-03-03T14:28:01.463Z,6.73
2019-03-03T14:30:31.351Z,6.63
2019-03-03T14:33:01.125Z,7.80
2019-03-03T14:35:30.863Z,9.90
2019-03-03T14:38:00.864Z,8.63
2019-03-03T14:40:31.445Z,8.67
2019-03-03T14:43:01.193Z,9.38
2019-03-03T14:45:30.871Z,8.10
2019-03-03T14:48:00.697Z,8.73
2019-03-03T14:50:30.514Z,8.43
2019-03-03T14:53:00.265Z,9.57
2019-03-03T14:55:30.132Z,10.93
2019-03-03T14:57:59.952Z,8.43
2019-03-03T15:00:31.405Z,8.87
2019-03-03T15:03:02.730Z,10.93
2019-03-03T15:05:32.642Z,11.63
2019-03-03T15:08:02.998Z,12.00
2019-03-03T15:10:32.864Z,10.70
2019-03-03T15:13:02.656Z,10.53
2019-03-03T15:15:33.350Z,12.07
2019-03-03T15:18:03.219Z,11.67
2019-03-03T15:20:33.446Z,12.93
2019-03-03T15:23:03.325Z,13.30
2019-03-03T15:25:33.159Z,13.68
2019-03-03T15:28:02.969Z,11.90
2019-03-03T15:30:32.979Z,13.70
2019-03-03T15:33:02.724Z,17.07
2019-03-03T15:35:32.589Z,12.03
2019-03-03T15:38:02.506Z,12.87
2019-03-03T15:40:32.334Z,13.57
2019-03-03T15:43:02.088Z,14.77
2019-03-03T15:45:31.794Z,13.67
2019-03-03T15:48:02.180Z,11.20
2019-03-03T15:50:32.042Z,16.00
2019-03-03T15:53:01.756Z,16.70
2019-03-03T15:55:31.769Z,18.23
2019-03-03T15:58:01.591Z,13.50
2019-03-03T16:00:31.980Z,16.90
2019-03-03T16:03:01.653Z,15.73
2019-03-03T16:05:31.419Z,16.20
2019-03-03T16:08:01.359Z,15.20
2019-03-03T16:10:31.112Z,14.77
2019-03-03T16:13:01.045Z,14.57
2019-03-03T16:15:30.713Z,15.03
2019-03-03T16:18:00.396Z,17.23
2019-03-03T16:20:30.171Z,15.93
2019-03-03T16:22:59.868Z,13.00
2019-03-03T16:25:29.631Z,20.80
2019-03-03T16:27:59.581Z,14.33
2019-03-03T16:30:29.331Z,12.97
2019-03-03T16:32:59.092Z,13.47
2019-03-03T16:35:28.758Z,15.10
2019-03-03T16:37:58.443Z,16.53
2019-03-03T16:40:28.270Z,14.67
2019-03-03T16:42:58.376Z,16.33
2019-03-03T16:45:28.042Z,15.30
2019-03-03T16:47:57.713Z,15.83
2019-03-03T16:50:28.433Z,17.27
2019-03-03T16:52:58.120Z,15.43
2019-03-03T16:55:27.810Z,16.53
2019-03-03T16:57:57.554Z,12.27
2019-03-03T17:00:27.357Z,14.53
2019-03-03T17:02:59.160Z,13.07
2019-03-03T17:05:29.050Z,12.63
2019-03-03T17:07:58.792Z,13.45
2019-03-03T17:10:28.546Z,13.70
2019-03-03T17:12:58.509Z,18.67
2019-03-03T17:15:28.208Z,15.63
2019-03-03T17:17:58.063Z,13.33
2019-03-03T17:20:28.054Z,12.57
2019-03-03T17:22:57.822Z,14.57
2019-03-03T17:28:05.679Z,15.73
2019-03-03T17:30:35.443Z,13.03
2019-03-03T17:33:05.436Z,15.13
2019-03-03T17:35:35.479Z,14.97
2019-03-03T17:38:05.227Z,14.60
2019-03-03T17:40:35.023Z,11.30
2019-03-03T17:43:05.200Z,14.38
2019-03-03T17:45:34.875Z,16.50
2019-03-03T17:48:04.885Z,13.47
2019-03-03T17:50:34.563Z,13.23
2019-03-03T17:53:04.972Z,17.07
2019-03-03T17:55:34.798Z,11.33
2019-03-03T17:58:05.306Z,14.70
2019-03-03T18:00:36.544Z,10.80
2019-03-03T18:03:06.223Z,16.80
2019-03-03T18:05:35.916Z,12.63
2019-03-03T18:08:05.614Z,16.20
2019-03-03T18:10:35.366Z,15.17
2019-03-03T18:13:05.788Z,13.28
2019-03-03T18:15:35.803Z,13.87
2019-03-03T18:18:05.539Z,10.17
2019-03-03T18:20:35.228Z,8.17
2019-03-03T18:23:04.990Z,9.53
2019-03-03T18:25:34.667Z,9.60
2019-03-03T18:28:05.289Z,13.45
2019-03-03T18:30:35.768Z,15.47
2019-03-03T18:33:05.579Z,13.13
2019-03-03T18:35:35.251Z,13.80
2019-03-03T18:38:05.533Z,13.70
2019-03-03T18:40:35.336Z,11.70
2019-03-03T18:43:05.097Z,12.30
2019-03-03T18:45:34.784Z,13.87
2019-03-03T18:48:05.746Z,10.37
2019-03-03T18:50:35.581Z,13.47
2019-03-03T18:53:05.583Z,9.83
2019-03-03T18:55:35.407Z,16.73
2019-03-03T18:58:06.365Z,11.63
2019-03-03T19:00:36.579Z,10.67
2019-03-03T19:03:07.025Z,12.33
2019-03-03T19:05:37.765Z,13.30
2019-03-03T19:08:07.436Z,10.00
2019-03-03T19:10:37.460Z,10.20
2019-03-03T19:13:07.359Z,14.07
2019-03-03T19:15:37.205Z,12.60
2019-03-03T19:18:06.944Z,11.00
2019-03-03T19:20:36.723Z,9.43
2019-03-03T19:23:06.591Z,12.00
2019-03-03T19:25:36.346Z,10.13
2019-03-03T19:28:06.259Z,8.83
2019-03-03T19:30:35.939Z,11.17
2019-03-03T19:33:17.957Z,10.20
2019-03-03T19:35:47.701Z,9.37
2019-03-03T19:38:17.441Z,13.23
2019-03-03T19:40:47.236Z,15.63
2019-03-03T19:43:17.237Z,9.40
2019-03-03T19:45:46.994Z,13.37
2019-03-03T19:48:17.027Z,10.70
2019-03-03T19:50:46.991Z,12.50
2019-03-03T19:53:16.759Z,11.07
2019-03-03T19:55:46.828Z,10.57
2019-03-03T19:58:16.650Z,9.50
2019-03-03T20:00:46.504Z,11.67
2019-03-03T20:03:16.341Z,10.47
2019-03-03T20:05:46.071Z,13.60
2019-03-03T20:08:16.720Z,11.27
2019-03-03T20:10:46.484Z,14.38
2019-03-03T20:13:16.318Z,11.75
2019-03-03T20:15:45.984Z,9.23
2019-03-03T20:18:15.808Z,11.53
2019-03-03T20:20:45.661Z,14.87
2019-03-03T20:23:15.321Z,9.67
2019-03-03T20:25:45.015Z,12.67
2019-03-03T20:28:14.692Z,8.83
2019-03-03T20:30:45.494Z,11.47
2019-03-03T20:33:15.305Z,12.87
2019-03-03T20:35:45.254Z,12.53
2019-03-03T20:38:14.917Z,10.93
2019-03-03T20:40:45.548Z,11.47
2019-03-03T20:43:15.238Z,11.22
2019-03-03T20:45:45.265Z,11.97
2019-03-03T20:48:15.029Z,15.03
2019-03-03T20:50:44.705Z,10.80
2019-03-03T20:53:14.645Z,10.47
2019-03-03T20:55:44.321Z,10.23
2019-03-03T20:58:13.999Z,9.73
2019-03-03T21:00:43.941Z,9.43
2019-03-03T21:03:13.602Z,7.20
2019-03-03T21:05:43.268Z,10.63
2019-03-03T21:08:13.004Z,11.53
2019-03-03T21:10:42.619Z,10.37
2019-03-03T21:13:12.277Z,10.50
2019-03-03T21:15:42.018Z,8.33
2019-03-03T21:18:11.694Z,8.90
2019-03-03T21:20:41.388Z,9.43
2019-03-03T21:23:11.324Z,10.50
2019-03-03T21:25:41.024Z,10.23
2019-03-03T21:28:10.766Z,8.68
2019-03-03T21:30:40.433Z,9.17
2019-03-03T21:33:10.372Z,7.05
2019-03-03T21:35:40.086Z,8.40
2019-03-03T21:38:10.003Z,8.27
2019-03-03T21:40:39.694Z,10.10
2019-03-03T21:43:09.400Z,9.93
2019-03-03T21:45:39.147Z,9.40
2019-03-03T21:48:08.888Z,8.00
2019-03-03T21:50:38.563Z,8.07
2019-03-03T21:53:08.372Z,8.20
2019-03-03T21:55:38.029Z,11.47
2019-03-03T21:58:08.058Z,10.57
2019-03-03T22:00:38.303Z,10.98
2019-03-03T22:03:09.318Z,12.20
2019-03-03T22:05:38.993Z,8.80
2019-03-03T22:08:08.655Z,8.73
2019-03-03T22:10:38.591Z,9.57
2019-03-03T22:13:12.509Z,9.80
2019-03-03T22:15:42.371Z,8.17
2019-03-03T22:18:12.038Z,6.60
2019-03-03T22:20:41.715Z,9.93
2019-03-03T22:23:11.391Z,6.37
2019-03-03T22:25:41.143Z,7.83
2019-03-03T22:28:13.161Z,6.53
2019-03-03T22:30:42.909Z,8.23
2019-03-03T22:33:12.586Z,8.08
2019-03-03T22:35:42.268Z,8.97
2019-03-03T22:38:11.931Z,7.97
2019-03-03T22:40:41.602Z,7.27
2019-03-03T22:43:11.281Z,7.80
2019-03-03T22:45:40.942Z,8.03
2019-03-03T22:48:10.625Z,11.40
2019-03-03T22:50:40.646Z,6.50
2019-03-03T22:53:10.744Z,7.53
2019-03-03T22:55:40.625Z,7.83
2019-03-03T22:58:10.248Z,7.57
2019-03-03T23:01:18.738Z,8.60
2019-03-03T23:04:07.490Z,7.80
2019-03-03T23:06:51.410Z,9.67
2019-03-03T23:09:52.413Z,8.13
2019-03-03T23:12:39.367Z,6.80
2019-03-03T23:15:27.535Z,7.90
2019-03-03T23:18:53.368Z,7.60
2019-03-03T23:22:01.454Z,9.57
2019-03-03T23:24:59.350Z,6.20
2019-03-03T23:27:29.029Z,8.53
2019-03-03T23:29:58.687Z,8.23
2019-03-03T23:32:28.589Z,7.87
2019-03-03T23:34:58.337Z,5.50
2019-03-03T23:37:28.010Z,7.07
2019-03-03T23:39:57.921Z,6.33
2019-03-03T23:42:27.873Z,6.90
2019-03-03T23:44:57.532Z,6.27
2019-03-03T23:47:27.202Z,8.87
2019-03-03T23:49:57.123Z,5.77
2019-03-03T23:52:26.852Z,6.03
2019-03-03T23:54:57.487Z,5.77
2019-03-03T23:57:27.448Z,8.77
2019-03-03T23:59:57.096Z,6.30
